sensor_id;sensor_type;location;lat;lon;timestamp;temperature;humidity
47921;DHT22;33686;48.770;9.186;2023-09-30T05:15:35;16.00;99.90
47921;DHT22;33686;48.770;9.186;2023-09-30T05:18:01;16.00;99.90
47921;DHT22;33686;48.770;9.186;2023-09-30T05:20:27;16.00;99.90
47921;DHT22;33686;48.770;9.186;2023-09-30T05:22:53;15.80;99.90
47921;DHT22;33686;48.770;9.186;2023-09-30T05:25:18;15.90;99.90
47921;DHT22;33686;48.770;9.186;2023-09-30T05:27:44;15.80;99.90
47921;DHT22;33686;48.770;9.186;2023-09-30T05:30:10;15.80;99.90
47921;DHT22;33686;48.770;9.186;2023-09-30T05:32:36;15.80;99.90
47921;DHT22;33686;48.770;9.186;2023-09-30T05:35:05;15.80;99.90
47921;DHT22;33686;48.770;9.186;2023-09-30T05:37:31;15.80;99.90
47921;DHT22;33686;48.770;9.186;2023-09-30T05:39:56;15.80;99.90
47921;DHT22;33686;48.770;9.186;2023-09-30T05:42:22;15.80;99.90
47921;DHT22;33686;48.770;9.186;2023-09-30T05:44:48;15.80;99.90
47921;DHT22;33686;48.770;9.186;2023-09-30T05:47:14;15.80;99.90
47921;DHT22;33686;48.770;9.186;2023-09-30T05:49:40;15.90;99.90
47921;DHT22;33686;48.770;9.186;2023-09-30T05:52:07;15.90;99.90
47921;DHT22;33686;48.770;9.186;2023-09-30T05:54:32;15.90;99.90
47921;DHT22;33686;48.770;9.186;2023-09-30T05:56:58;16.10;99.90
47921;DHT22;33686;48.770;9.186;2023-09-30T05:59:25;16.20;99.90
47921;DHT22;33686;48.770;9.186;2023-09-30T06:01:51;16.10;99.90
47921;DHT22;33686;48.770;9.186;2023-09-30T06:04:17;16.10;99.90
47921;DHT22;33686;48.770;9.186;2023-09-30T06:06:42;16.10;99.90
47921;DHT22;33686;48.770;9.186;2023-09-30T06:09:08;16.10;99.90
47921;DHT22;33686;48.770;9.186;2023-09-30T06:11:34;16.20;99.90
47921;DHT22;33686;48.770;9.186;2023-09-30T06:14:01;16.10;99.90
47921;DHT22;33686;48.770;9.186;2023-09-30T06:16:27;16.10;99.90
47921;DHT22;33686;48.770;9.186;2023-09-30T06:18:53;16.10;99.90
47921;DHT22;33686;48.770;9.186;2023-09-30T06:21:23;16.20;99.90
47921;DHT22;33686;48.770;9.186;2023-09-30T06:23:50;16.20;99.90
47921;DHT22;33686;48.770;9.186;2023-09-30T06:26:18;16.40;99.90
47921;DHT22;33686;48.770;9.186;2023-09-30T06:28:44;16.40;99.90
47921;DHT22;33686;48.770;9.186;2023-09-30T06:31:10;16.30;99.90
47921;DHT22;33686;48.770;9.186;2023-09-30T06:33:36;16.20;99.90
47921;DHT22;33686;48.770;9.186;2023-09-30T06:36:10;16.10;99.90
47921;DHT22;33686;48.770;9.186;2023-09-30T06:38:36;16.10;99.90
47921;DHT22;33686;48.770;9.186;2023-09-30T06:41:02;16.10;99.90
47921;DHT22;33686;48.770;9.186;2023-09-30T06:43:28;16.20;99.90
47921;DHT22;33686;48.770;9.186;2023-09-30T06:45:53;16.30;99.90
47921;DHT22;33686;48.770;9.186;2023-09-30T06:48:20;16.20;99.90
47921;DHT22;33686;48.770;9.186;2023-09-30T06:50:46;16.40;99.90
47921;DHT22;33686;48.770;9.186;2023-09-30T06:53:17;16.80;99.90
47921;DHT22;33686;48.770;9.186;2023-09-30T06:55:43;17.20;99.90
47921;DHT22;33686;48.770;9.186;2023-09-30T06:58:09;17.10;99.90
47921;DHT22;33686;48.770;9.186;2023-09-30T07:00:40;17.10;99.90
47921;DHT22;33686;48.770;9.186;2023-09-30T07:03:06;17.20;99.90
47921;DHT22;33686;48.770;9.186;2023-09-30T07:05:32;17.30;99.90
47921;DHT22;33686;48.770;9.186;2023-09-30T07:07:58;17.30;99.90
47921;DHT22;33686;48.770;9.186;2023-09-30T07:10:24;17.50;99.90
47921;DHT22;33686;48.770;9.186;2023-09-30T07:12:49;18.10;99.90
47921;DHT22;33686;48.770;9.186;2023-09-30T07:15:15;19.00;99.90
47921;DHT22;33686;48.770;9.186;2023-09-30T07:17:41;18.30;99.90
47921;DHT22;33686;48.770;9.186;2023-09-30T07:20:07;18.40;99.90
47921;DHT22;33686;48.770;9.186;2023-09-30T07:22:33;18.20;99.90
47921;DHT22;33686;48.770;9.186;2023-09-30T07:24:59;17.60;99.90
47921;DHT22;33686;48.770;9.186;2023-09-30T07:27:24;17.70;99.90
47921;DHT22;33686;48.770;9.186;2023-09-30T07:29:50;17.60;99.90
47921;DHT22;33686;48.770;9.186;2023-09-30T07:32:15;17.60;99.90
47921;DHT22;33686;48.770;9.186;2023-09-30T07:34:41;17.50;99.90
47921;DHT22;33686;48.770;9.186;2023-09-30T07:37:07;17.40;99.90
47921;DHT22;33686;48.770;9.186;2023-09-30T07:39:33;17.20;99.90
47921;DHT22;33686;48.770;9.186;2023-09-30T07:42:00;17.30;99.90
47921;DHT22;33686;48.770;9.186;2023-09-30T07:44:26;17.70;99.90
47921;DHT22;33686;48.770;9.186;2023-09-30T07:46:52;18.00;99.90
47921;DHT22;33686;48.770;9.186;2023-09-30T07:49:17;18.80;99.90
47921;DHT22;33686;48.770;9.186;2023-09-30T07:51:43;19.80;99.90
47921;DHT22;33686;48.770;9.186;2023-09-30T07:54:08;19.80;99.90
47921;DHT22;33686;48.770;9.186;2023-09-30T07:56:34;19.60;99.90
47921;DHT22;33686;48.770;9.186;2023-09-30T07:58:59;19.00;99.90
47921;DHT22;33686;48.770;9.186;2023-09-30T08:01:25;19.10;99.90
47921;DHT22;33686;48.770;9.186;2023-09-30T08:03:50;19.10;99.90
47921;DHT22;33686;48.770;9.186;2023-09-30T08:06:16;19.00;99.90
47921;DHT22;33686;48.770;9.186;2023-09-30T08:08:41;18.50;99.90
47921;DHT22;33686;48.770;9.186;2023-09-30T08:11:07;18.50;99.90
47921;DHT22;33686;48.770;9.186;2023-09-30T08:13:32;18.90;99.90
47921;DHT22;33686;48.770;9.186;2023-09-30T08:16:01;19.00;99.90
47921;DHT22;33686;48.770;9.186;2023-09-30T08:18:26;19.70;99.90
47921;DHT22;33686;48.770;9.186;2023-09-30T08:20:52;19.40;99.90
47921;DHT22;33686;48.770;9.186;2023-09-30T08:23:18;19.30;99.90
47921;DHT22;33686;48.770;9.186;2023-09-30T08:25:43;19.50;99.90
47921;DHT22;33686;48.770;9.186;2023-09-30T08:28:09;19.80;99.90
47921;DHT22;33686;48.770;9.186;2023-09-30T08:30:35;19.90;99.90
47921;DHT22;33686;48.770;9.186;2023-09-30T08:33:01;19.80;99.90
47921;DHT22;33686;48.770;9.186;2023-09-30T08:35:29;19.60;99.90
47921;DHT22;33686;48.770;9.186;2023-09-30T08:37:54;20.00;99.90
47921;DHT22;33686;48.770;9.186;2023-09-30T08:40:20;19.70;99.90
47921;DHT22;33686;48.770;9.186;2023-09-30T08:42:48;20.10;99.90
47921;DHT22;33686;48.770;9.186;2023-09-30T08:45:16;19.60;99.90
47921;DHT22;33686;48.770;9.186;2023-09-30T08:47:42;20.30;99.90
47921;DHT22;33686;48.770;9.186;2023-09-30T08:50:08;20.80;99.90
47921;DHT22;33686;48.770;9.186;2023-09-30T08:52:38;21.30;99.90
47921;DHT22;33686;48.770;9.186;2023-09-30T08:55:04;21.80;99.90
47921;DHT22;33686;48.770;9.186;2023-09-30T08:57:31;22.40;99.90
47921;DHT22;33686;48.770;9.186;2023-09-30T08:59:57;22.00;99.90
47921;DHT22;33686;48.770;9.186;2023-09-30T09:02:23;21.70;99.90
47921;DHT22;33686;48.770;9.186;2023-09-30T09:04:49;21.40;99.90
47921;DHT22;33686;48.770;9.186;2023-09-30T09:07:14;22.10;99.90
47921;DHT22;33686;48.770;9.186;2023-09-30T09:09:40;22.10;99.90
47921;DHT22;33686;48.770;9.186;2023-09-30T09:12:06;22.30;99.90
47921;DHT22;33686;48.770;9.186;2023-09-30T09:17:06;21.50;99.90
47921;DHT22;33686;48.770;9.186;2023-09-30T09:19:31;21.30;99.90
47921;DHT22;33686;48.770;9.186;2023-09-30T09:21:58;20.90;99.90
47921;DHT22;33686;48.770;9.186;2023-09-30T09:24:27;20.40;99.90
47921;DHT22;33686;48.770;9.186;2023-09-30T09:26:53;20.40;99.90
47921;DHT22;33686;48.770;9.186;2023-09-30T09:29:28;20.70;99.90
47921;DHT22;33686;48.770;9.186;2023-09-30T09:31:54;20.70;99.90
47921;DHT22;33686;48.770;9.186;2023-09-30T09:34:31;20.80;99.90
47921;DHT22;33686;48.770;9.186;2023-09-30T09:36:56;20.80;99.90
47921;DHT22;33686;48.770;9.186;2023-09-30T09:39:29;20.50;99.90
47921;DHT22;33686;48.770;9.186;2023-09-30T09:41:55;19.90;99.90
47921;DHT22;33686;48.770;9.186;2023-09-30T09:44:23;19.80;99.90
47921;DHT22;33686;48.770;9.186;2023-09-30T09:46:50;19.70;99.90
47921;DHT22;33686;48.770;9.186;2023-09-30T09:49:16;19.50;99.90
47921;DHT22;33686;48.770;9.186;2023-09-30T09:51:45;19.30;99.90
47921;DHT22;33686;48.770;9.186;2023-09-30T09:54:14;19.10;99.90
47921;DHT22;33686;48.770;9.186;2023-09-30T09:56:40;19.40;99.90
47921;DHT22;33686;48.770;9.186;2023-09-30T09:59:06;19.30;99.90
47921;DHT22;33686;48.770;9.186;2023-09-30T10:01:33;19.10;99.90
47921;DHT22;33686;48.770;9.186;2023-09-30T10:04:00;19.20;99.90
47921;DHT22;33686;48.770;9.186;2023-09-30T10:06:26;19.20;99.90
47921;DHT22;33686;48.770;9.186;2023-09-30T10:08:52;19.50;99.90
47921;DHT22;33686;48.770;9.186;2023-09-30T10:11:19;19.60;99.90
47921;DHT22;33686;48.770;9.186;2023-09-30T10:13:55;19.60;99.90
47921;DHT22;33686;48.770;9.186;2023-09-30T10:19:08;19.70;99.90
47921;DHT22;33686;48.770;9.186;2023-09-30T10:21:34;20.30;99.90
47921;DHT22;33686;48.770;9.186;2023-09-30T10:24:41;20.40;99.90
47921;DHT22;33686;48.770;9.186;2023-09-30T10:29:41;20.50;99.90
47921;DHT22;33686;48.770;9.186;2023-09-30T10:32:10;20.80;99.90
47921;DHT22;33686;48.770;9.186;2023-09-30T10:34:35;20.30;99.90
47921;DHT22;33686;48.770;9.186;2023-09-30T10:37:22;20.60;99.90
47921;DHT22;33686;48.770;9.186;2023-09-30T10:45:04;21.50;99.90
47921;DHT22;33686;48.770;9.186;2023-09-30T10:49:56;21.60;99.90
47921;DHT22;33686;48.770;9.186;2023-09-30T10:52:22;21.20;99.90
47921;DHT22;33686;48.770;9.186;2023-09-30T10:54:50;21.40;99.90
47921;DHT22;33686;48.770;9.186;2023-09-30T10:57:26;21.00;99.90
47921;DHT22;33686;48.770;9.186;2023-09-30T11:00:06;20.90;99.90
47921;DHT22;33686;48.770;9.186;2023-09-30T11:02:32;20.40;99.90
47921;DHT22;33686;48.770;9.186;2023-09-30T11:05:01;20.30;99.90
47921;DHT22;33686;48.770;9.186;2023-09-30T11:07:33;19.90;99.90
47921;DHT22;33686;48.770;9.186;2023-09-30T11:10:00;19.70;99.90
47921;DHT22;33686;48.770;9.186;2023-09-30T11:12:26;19.70;99.90
47921;DHT22;33686;48.770;9.186;2023-09-30T11:14:58;19.70;99.90
47921;DHT22;33686;48.770;9.186;2023-09-30T11:17:24;19.70;99.90
47921;DHT22;33686;48.770;9.186;2023-09-30T11:19:49;19.90;99.90
47921;DHT22;33686;48.770;9.186;2023-09-30T11:22:15;20.00;99.90
47921;DHT22;33686;48.770;9.186;2023-09-30T11:24:41;20.10;99.90
47921;DHT22;33686;48.770;9.186;2023-09-30T11:27:07;20.20;99.90
47921;DHT22;33686;48.770;9.186;2023-09-30T11:29:32;20.20;99.90
47921;DHT22;33686;48.770;9.186;2023-09-30T11:31:58;19.90;99.90
47921;DHT22;33686;48.770;9.186;2023-09-30T11:34:34;20.00;99.90
47921;DHT22;33686;48.770;9.186;2023-09-30T11:37:02;20.30;99.90
47921;DHT22;33686;48.770;9.186;2023-09-30T11:39:28;20.50;99.90
47921;DHT22;33686;48.770;9.186;2023-09-30T11:41:54;20.80;99.90
47921;DHT22;33686;48.770;9.186;2023-09-30T11:44:21;20.80;99.90
47921;DHT22;33686;48.770;9.186;2023-09-30T11:46:48;20.80;99.90
47921;DHT22;33686;48.770;9.186;2023-09-30T11:49:33;20.90;99.90
47921;DHT22;33686;48.770;9.186;2023-09-30T11:52:07;21.10;99.90
47921;DHT22;33686;48.770;9.186;2023-09-30T11:54:34;21.20;99.90
47921;DHT22;33686;48.770;9.186;2023-09-30T11:57:00;21.20;99.90
47921;DHT22;33686;48.770;9.186;2023-09-30T11:59:26;21.00;99.90
47921;DHT22;33686;48.770;9.186;2023-09-30T12:01:51;20.80;99.90
47921;DHT22;33686;48.770;9.186;2023-09-30T12:04:17;20.70;99.90
47921;DHT22;33686;48.770;9.186;2023-09-30T12:06:47;20.80;99.90
47921;DHT22;33686;48.770;9.186;2023-09-30T12:09:14;20.80;99.90
47921;DHT22;33686;48.770;9.186;2023-09-30T12:11:43;20.70;99.90
47921;DHT22;33686;48.770;9.186;2023-09-30T12:14:12;21.00;99.90
47921;DHT22;33686;48.770;9.186;2023-09-30T12:16:38;21.20;99.90
47921;DHT22;33686;48.770;9.186;2023-09-30T12:19:04;21.00;99.90
47921;DHT22;33686;48.770;9.186;2023-09-30T12:21:31;20.90;99.90
47921;DHT22;33686;48.770;9.186;2023-09-30T12:23:57;20.80;99.90
47921;DHT22;33686;48.770;9.186;2023-09-30T12:26:23;20.70;99.90
47921;DHT22;33686;48.770;9.186;2023-09-30T12:28:49;20.60;99.90
47921;DHT22;33686;48.770;9.186;2023-09-30T12:31:15;20.60;99.90
47921;DHT22;33686;48.770;9.186;2023-09-30T12:33:40;20.80;99.90
47921;DHT22;33686;48.770;9.186;2023-09-30T12:36:06;20.50;99.90
47921;DHT22;33686;48.770;9.186;2023-09-30T12:38:33;20.60;99.90
47921;DHT22;33686;48.770;9.186;2023-09-30T12:40:58;20.60;99.90
47921;DHT22;33686;48.770;9.186;2023-09-30T12:43:24;20.70;99.90
47921;DHT22;33686;48.770;9.186;2023-09-30T12:45:50;20.60;99.90
47921;DHT22;33686;48.770;9.186;2023-09-30T12:48:16;20.50;99.90
47921;DHT22;33686;48.770;9.186;2023-09-30T12:50:43;20.60;99.90
47921;DHT22;33686;48.770;9.186;2023-09-30T12:53:09;20.60;99.90
47921;DHT22;33686;48.770;9.186;2023-09-30T12:55:34;20.60;99.90
47921;DHT22;33686;48.770;9.186;2023-09-30T12:58:00;20.60;99.90
47921;DHT22;33686;48.770;9.186;2023-09-30T13:00:26;20.70;99.90
47921;DHT22;33686;48.770;9.186;2023-09-30T13:02:52;20.80;99.90
47921;DHT22;33686;48.770;9.186;2023-09-30T13:05:18;20.90;99.90
47921;DHT22;33686;48.770;9.186;2023-09-30T13:07:43;20.70;99.90
47921;DHT22;33686;48.770;9.186;2023-09-30T13:10:09;20.50;99.90
47921;DHT22;33686;48.770;9.186;2023-09-30T13:12:35;20.60;99.90
47921;DHT22;33686;48.770;9.186;2023-09-30T13:15:01;20.60;99.90
47921;DHT22;33686;48.770;9.186;2023-09-30T13:17:26;20.50;99.90
47921;DHT22;33686;48.770;9.186;2023-09-30T13:19:52;20.70;99.90
47921;DHT22;33686;48.770;9.186;2023-09-30T13:22:18;20.60;99.90
47921;DHT22;33686;48.770;9.186;2023-09-30T13:24:43;20.70;99.90
47921;DHT22;33686;48.770;9.186;2023-09-30T13:27:09;20.80;99.90
47921;DHT22;33686;48.770;9.186;2023-09-30T13:29:35;20.50;99.90
47921;DHT22;33686;48.770;9.186;2023-09-30T13:32:01;20.30;99.90
47921;DHT22;33686;48.770;9.186;2023-09-30T13:34:26;20.30;99.90
47921;DHT22;33686;48.770;9.186;2023-09-30T13:36:52;20.60;99.90
47921;DHT22;33686;48.770;9.186;2023-09-30T13:39:17;20.60;99.90
47921;DHT22;33686;48.770;9.186;2023-09-30T13:41:43;20.70;99.90
47921;DHT22;33686;48.770;9.186;2023-09-30T13:44:09;20.80;99.90
47921;DHT22;33686;48.770;9.186;2023-09-30T13:46:36;20.70;99.90
47921;DHT22;33686;48.770;9.186;2023-09-30T13:49:01;20.70;99.90
47921;DHT22;33686;48.770;9.186;2023-09-30T13:51:27;20.50;99.90
47921;DHT22;33686;48.770;9.186;2023-09-30T13:53:52;20.30;99.90
47921;DHT22;33686;48.770;9.186;2023-09-30T13:56:19;20.20;99.90
47921;DHT22;33686;48.770;9.186;2023-09-30T13:58:44;20.10;99.90
47921;DHT22;33686;48.770;9.186;2023-09-30T14:01:10;20.00;99.90
47921;DHT22;33686;48.770;9.186;2023-09-30T14:03:38;20.10;99.90
47921;DHT22;33686;48.770;9.186;2023-09-30T14:06:12;20.00;99.90
47921;DHT22;33686;48.770;9.186;2023-09-30T14:08:38;19.90;99.90
47921;DHT22;33686;48.770;9.186;2023-09-30T14:11:03;19.90;99.90
47921;DHT22;33686;48.770;9.186;2023-09-30T14:13:30;20.00;99.90
47921;DHT22;33686;48.770;9.186;2023-09-30T14:15:55;19.90;99.90
47921;DHT22;33686;48.770;9.186;2023-09-30T14:18:21;20.00;99.90
47921;DHT22;33686;48.770;9.186;2023-09-30T14:20:47;20.00;99.90
47921;DHT22;33686;48.770;9.186;2023-09-30T14:23:13;20.10;99.90
47921;DHT22;33686;48.770;9.186;2023-09-30T14:25:39;20.10;99.90
47921;DHT22;33686;48.770;9.186;2023-09-30T14:28:05;20.30;99.90
47921;DHT22;33686;48.770;9.186;2023-09-30T14:30:30;20.30;99.90
47921;DHT22;33686;48.770;9.186;2023-09-30T14:32:56;20.30;99.90
47921;DHT22;33686;48.770;9.186;2023-09-30T14:35:22;20.30;99.90
47921;DHT22;33686;48.770;9.186;2023-09-30T14:37:47;20.30;99.90
47921;DHT22;33686;48.770;9.186;2023-09-30T14:40:13;20.30;99.90
47921;DHT22;33686;48.770;9.186;2023-09-30T14:42:38;20.10;99.90
47921;DHT22;33686;48.770;9.186;2023-09-30T14:45:04;20.10;99.90
47921;DHT22;33686;48.770;9.186;2023-09-30T14:47:29;20.10;99.90
47921;DHT22;33686;48.770;9.186;2023-09-30T14:49:55;20.00;99.90
47921;DHT22;33686;48.770;9.186;2023-09-30T14:52:21;20.00;99.90
47921;DHT22;33686;48.770;9.186;2023-09-30T14:54:46;20.10;99.90
47921;DHT22;33686;48.770;9.186;2023-09-30T14:57:12;20.10;99.90
47921;DHT22;33686;48.770;9.186;2023-09-30T14:59:39;20.10;99.90
47921;DHT22;33686;48.770;9.186;2023-09-30T15:02:05;19.90;99.90
47921;DHT22;33686;48.770;9.186;2023-09-30T15:04:34;19.90;99.90
47921;DHT22;33686;48.770;9.186;2023-09-30T15:06:59;19.80;99.90
47921;DHT22;33686;48.770;9.186;2023-09-30T15:09:26;19.70;99.90
47921;DHT22;33686;48.770;9.186;2023-09-30T15:11:52;19.80;99.90
47921;DHT22;33686;48.770;9.186;2023-09-30T15:14:18;19.80;99.90
47921;DHT22;33686;48.770;9.186;2023-09-30T15:16:44;19.80;99.90
47921;DHT22;33686;48.770;9.186;2023-09-30T15:19:09;19.80;99.90
47921;DHT22;33686;48.770;9.186;2023-09-30T15:21:35;19.80;99.90
47921;DHT22;33686;48.770;9.186;2023-09-30T15:24:01;19.80;99.90
47921;DHT22;33686;48.770;9.186;2023-09-30T15:26:28;19.70;99.90
47921;DHT22;33686;48.770;9.186;2023-09-30T15:28:54;19.80;99.90
47921;DHT22;33686;48.770;9.186;2023-09-30T15:31:19;19.80;99.90
47921;DHT22;33686;48.770;9.186;2023-09-30T15:33:45;19.70;99.90
47921;DHT22;33686;48.770;9.186;2023-09-30T15:38:36;19.80;99.90
47921;DHT22;33686;48.770;9.186;2023-09-30T15:41:01;19.70;99.90
47921;DHT22;33686;48.770;9.186;2023-09-30T15:43:29;19.70;99.90
47921;DHT22;33686;48.770;9.186;2023-09-30T15:45:55;19.70;99.90
47921;DHT22;33686;48.770;9.186;2023-09-30T15:48:20;19.60;99.90
47921;DHT22;33686;48.770;9.186;2023-09-30T15:50:46;19.70;99.90
47921;DHT22;33686;48.770;9.186;2023-09-30T15:53:12;19.60;99.90
47921;DHT22;33686;48.770;9.186;2023-09-30T15:55:37;19.60;99.90
47921;DHT22;33686;48.770;9.186;2023-09-30T15:58:03;19.60;99.90
47921;DHT22;33686;48.770;9.186;2023-09-30T16:00:29;19.60;99.90
47921;DHT22;33686;48.770;9.186;2023-09-30T16:02:56;19.60;99.90
47921;DHT22;33686;48.770;9.186;2023-09-30T16:05:22;19.60;99.90
47921;DHT22;33686;48.770;9.186;2023-09-30T16:07:48;19.50;99.90
47921;DHT22;33686;48.770;9.186;2023-09-30T16:10:14;19.50;99.90
47921;DHT22;33686;48.770;9.186;2023-09-30T16:12:41;19.40;99.90
47921;DHT22;33686;48.770;9.186;2023-09-30T16:15:07;19.40;99.90
47921;DHT22;33686;48.770;9.186;2023-09-30T16:17:34;19.30;99.90
47921;DHT22;33686;48.770;9.186;2023-09-30T16:20:00;19.20;99.90
47921;DHT22;33686;48.770;9.186;2023-09-30T16:22:25;19.20;99.90
47921;DHT22;33686;48.770;9.186;2023-09-30T16:24:51;19.20;99.90
47921;DHT22;33686;48.770;9.186;2023-09-30T16:27:16;19.10;99.90
47921;DHT22;33686;48.770;9.186;2023-09-30T16:29:42;19.10;99.90
47921;DHT22;33686;48.770;9.186;2023-09-30T16:32:08;19.10;99.90
47921;DHT22;33686;48.770;9.186;2023-09-30T16:34:33;19.00;99.90
47921;DHT22;33686;48.770;9.186;2023-09-30T16:36:59;19.00;99.90
47921;DHT22;33686;48.770;9.186;2023-09-30T16:39:25;19.00;99.90
47921;DHT22;33686;48.770;9.186;2023-09-30T16:41:52;18.90;99.90
47921;DHT22;33686;48.770;9.186;2023-09-30T16:44:17;18.90;99.90
47921;DHT22;33686;48.770;9.186;2023-09-30T16:46:43;18.80;99.90
47921;DHT22;33686;48.770;9.186;2023-09-30T16:49:08;18.80;99.90
47921;DHT22;33686;48.770;9.186;2023-09-30T16:51:34;18.70;99.90
47921;DHT22;33686;48.770;9.186;2023-09-30T16:54:00;18.70;99.90
47921;DHT22;33686;48.770;9.186;2023-09-30T16:56:26;18.70;99.90
47921;DHT22;33686;48.770;9.186;2023-09-30T16:58:53;18.60;99.90
47921;DHT22;33686;48.770;9.186;2023-09-30T17:01:18;18.60;99.90
47921;DHT22;33686;48.770;9.186;2023-09-30T17:03:46;18.50;99.90
47921;DHT22;33686;48.770;9.186;2023-09-30T17:06:11;18.50;99.90
47921;DHT22;33686;48.770;9.186;2023-09-30T17:08:37;18.40;99.90
47921;DHT22;33686;48.770;9.186;2023-09-30T17:11:02;18.40;99.90
47921;DHT22;33686;48.770;9.186;2023-09-30T17:13:29;18.40;99.90
47921;DHT22;33686;48.770;9.186;2023-09-30T17:15:54;18.30;99.90
47921;DHT22;33686;48.770;9.186;2023-09-30T17:18:20;18.20;99.90
47921;DHT22;33686;48.770;9.186;2023-09-30T17:20:45;18.00;99.90
47921;DHT22;33686;48.770;9.186;2023-09-30T17:23:11;17.70;99.90
47921;DHT22;33686;48.770;9.186;2023-09-30T17:25:37;17.70;99.90
47921;DHT22;33686;48.770;9.186;2023-09-30T17:28:03;17.60;99.90
47921;DHT22;33686;48.770;9.186;2023-09-30T17:30:29;17.50;99.90
47921;DHT22;33686;48.770;9.186;2023-09-30T17:32:54;17.50;99.90
47921;DHT22;33686;48.770;9.186;2023-09-30T17:35:20;17.30;99.90
47921;DHT22;33686;48.770;9.186;2023-09-30T17:37:46;17.30;99.90
47921;DHT22;33686;48.770;9.186;2023-09-30T17:40:12;17.10;99.90
47921;DHT22;33686;48.770;9.186;2023-09-30T17:42:38;17.00;99.90
47921;DHT22;33686;48.770;9.186;2023-09-30T17:45:04;16.90;99.90
47921;DHT22;33686;48.770;9.186;2023-09-30T17:47:30;17.00;99.90
47921;DHT22;33686;48.770;9.186;2023-09-30T17:49:55;16.80;99.90
47921;DHT22;33686;48.770;9.186;2023-09-30T17:52:21;16.60;99.90
47921;DHT22;33686;48.770;9.186;2023-09-30T17:54:46;16.60;99.90
47921;DHT22;33686;48.770;9.186;2023-09-30T17:57:12;16.50;99.90
47921;DHT22;33686;48.770;9.186;2023-09-30T17:59:40;16.40;99.90
47921;DHT22;33686;48.770;9.186;2023-09-30T18:02:05;16.40;99.90
47921;DHT22;33686;48.770;9.186;2023-09-30T18:04:31;16.40;99.90
47921;DHT22;33686;48.770;9.186;2023-09-30T18:06:56;16.30;99.90
47921;DHT22;33686;48.770;9.186;2023-09-30T18:09:22;16.20;99.90
47921;DHT22;33686;48.770;9.186;2023-09-30T18:11:48;16.20;99.90
47921;DHT22;33686;48.770;9.186;2023-09-30T18:14:14;16.20;99.90
47921;DHT22;33686;48.770;9.186;2023-09-30T18:16:41;16.20;99.90
47921;DHT22;33686;48.770;9.186;2023-09-30T18:19:09;16.10;99.90
47921;DHT22;33686;48.770;9.186;2023-09-30T18:21:35;16.00;99.90
47921;DHT22;33686;48.770;9.186;2023-09-30T18:24:00;16.00;99.90
47921;DHT22;33686;48.770;9.186;2023-09-30T18:26:26;16.00;99.90
47921;DHT22;33686;48.770;9.186;2023-09-30T18:28:51;16.00;99.90
47921;DHT22;33686;48.770;9.186;2023-09-30T18:31:19;16.00;99.90
47921;DHT22;33686;48.770;9.186;2023-09-30T18:33:44;15.90;99.90
47921;DHT22;33686;48.770;9.186;2023-09-30T18:36:10;15.90;99.90
47921;DHT22;33686;48.770;9.186;2023-09-30T18:38:37;15.90;99.90
47921;DHT22;33686;48.770;9.186;2023-09-30T18:41:12;15.80;99.90
47921;DHT22;33686;48.770;9.186;2023-09-30T18:43:41;15.80;99.90
47921;DHT22;33686;48.770;9.186;2023-09-30T18:46:07;15.70;99.90
47921;DHT22;33686;48.770;9.186;2023-09-30T18:48:34;15.70;99.90
47921;DHT22;33686;48.770;9.186;2023-09-30T18:51:00;15.70;99.90
47921;DHT22;33686;48.770;9.186;2023-09-30T18:53:26;15.60;99.90
47921;DHT22;33686;48.770;9.186;2023-09-30T18:55:51;15.50;99.90
47921;DHT22;33686;48.770;9.186;2023-09-30T18:58:17;15.40;99.90
47921;DHT22;33686;48.770;9.186;2023-09-30T19:00:43;15.30;99.90
47921;DHT22;33686;48.770;9.186;2023-09-30T19:03:10;15.30;99.90
47921;DHT22;33686;48.770;9.186;2023-09-30T19:05:36;15.30;99.90
47921;DHT22;33686;48.770;9.186;2023-09-30T19:08:02;15.20;99.90
47921;DHT22;33686;48.770;9.186;2023-09-30T19:10:28;15.20;99.90
47921;DHT22;33686;48.770;9.186;2023-09-30T19:12:54;15.10;99.90
47921;DHT22;33686;48.770;9.186;2023-09-30T19:15:19;15.10;99.90
47921;DHT22;33686;48.770;9.186;2023-09-30T19:17:45;15.10;99.90
47921;DHT22;33686;48.770;9.186;2023-09-30T19:20:11;15.00;99.90
47921;DHT22;33686;48.770;9.186;2023-09-30T19:22:37;15.00;99.90
47921;DHT22;33686;48.770;9.186;2023-09-30T19:25:03;15.00;99.90
47921;DHT22;33686;48.770;9.186;2023-09-30T19:27:29;15.00;99.90
47921;DHT22;33686;48.770;9.186;2023-09-30T19:29:55;15.00;99.90
47921;DHT22;33686;48.770;9.186;2023-09-30T19:32:21;14.90;99.90
47921;DHT22;33686;48.770;9.186;2023-09-30T19:34:46;14.90;99.90
47921;DHT22;33686;48.770;9.186;2023-09-30T19:37:12;14.90;99.90
47921;DHT22;33686;48.770;9.186;2023-09-30T19:39:38;14.90;99.90
47921;DHT22;33686;48.770;9.186;2023-09-30T19:42:04;14.90;99.90
47921;DHT22;33686;48.770;9.186;2023-09-30T19:44:29;14.80;99.90
47921;DHT22;33686;48.770;9.186;2023-09-30T19:46:55;14.70;99.90
47921;DHT22;33686;48.770;9.186;2023-09-30T19:49:20;14.70;99.90
47921;DHT22;33686;48.770;9.186;2023-09-30T19:51:46;14.70;99.90
47921;DHT22;33686;48.770;9.186;2023-09-30T19:54:13;14.60;99.90
47921;DHT22;33686;48.770;9.186;2023-09-30T19:56:39;14.70;99.90
47921;DHT22;33686;48.770;9.186;2023-09-30T19:59:05;14.60;99.90
47921;DHT22;33686;48.770;9.186;2023-09-30T20:01:30;14.60;99.90
47921;DHT22;33686;48.770;9.186;2023-09-30T20:03:56;14.60;99.90
47921;DHT22;33686;48.770;9.186;2023-09-30T20:06:25;14.60;99.90
47921;DHT22;33686;48.770;9.186;2023-09-30T20:08:51;14.60;99.90
47921;DHT22;33686;48.770;9.186;2023-09-30T20:11:20;14.60;99.90
47921;DHT22;33686;48.770;9.186;2023-09-30T20:13:46;14.50;99.90
47921;DHT22;33686;48.770;9.186;2023-09-30T20:16:12;14.50;99.90
47921;DHT22;33686;48.770;9.186;2023-09-30T20:18:39;14.50;99.90
47921;DHT22;33686;48.770;9.186;2023-09-30T20:21:04;14.60;99.90
47921;DHT22;33686;48.770;9.186;2023-09-30T20:23:30;14.60;99.90
47921;DHT22;33686;48.770;9.186;2023-09-30T20:25:55;14.60;99.90
47921;DHT22;33686;48.770;9.186;2023-09-30T20:28:21;14.50;99.90
47921;DHT22;33686;48.770;9.186;2023-09-30T20:30:46;14.40;99.90
47921;DHT22;33686;48.770;9.186;2023-09-30T20:33:12;14.50;99.90
47921;DHT22;33686;48.770;9.186;2023-09-30T20:35:37;14.50;99.90
47921;DHT22;33686;48.770;9.186;2023-09-30T20:38:04;14.50;99.90
47921;DHT22;33686;48.770;9.186;2023-09-30T20:40:30;14.60;99.90
47921;DHT22;33686;48.770;9.186;2023-09-30T20:42:55;15.00;99.90
47921;DHT22;33686;48.770;9.186;2023-09-30T20:45:21;15.20;99.90
47921;DHT22;33686;48.770;9.186;2023-09-30T20:47:47;15.40;99.90
47921;DHT22;33686;48.770;9.186;2023-09-30T20:50:12;15.50;99.90
47921;DHT22;33686;48.770;9.186;2023-09-30T20:52:39;15.70;99.90
47921;DHT22;33686;48.770;9.186;2023-09-30T20:55:05;15.10;99.90
47921;DHT22;33686;48.770;9.186;2023-09-30T20:57:32;14.70;99.90